sensor_id;sensor_type;location;lat;lon;timestamp;pressure;altitude;pressure_sealevel;temperature;humidity
51849;BME280;38952;51.090;-1.832;2022-08-01T00:00:29;100615.06;;;17.12;81.02
51849;BME280;38952;51.090;-1.832;2022-08-01T00:02:55;100632.97;;;17.14;80.59
51849;BME280;38952;51.090;-1.832;2022-08-01T00:05:20;100636.25;;;17.16;81.01
51849;BME280;38952;51.090;-1.832;2022-08-01T00:07:45;100631.03;;;17.15;81.16
51849;BME280;38952;51.090;-1.832;2022-08-01T00:10:15;100630.13;;;17.19;80.99
51849;BME280;38952;51.090;-1.832;2022-08-01T00:12:42;100625.22;;;17.16;80.60
51849;BME280;38952;51.090;-1.832;2022-08-01T00:15:09;100628.28;;;17.15;80.67
51849;BME280;38952;51.090;-1.832;2022-08-01T00:17:35;100626.44;;;17.10;81.50
51849;BME280;38952;51.090;-1.832;2022-08-01T00:20:03;100635.63;;;17.05;81.03
51849;BME280;38952;51.090;-1.832;2022-08-01T00:22:30;100634.00;;;17.04;80.92
51849;BME280;38952;51.090;-1.832;2022-08-01T00:24:56;100629.09;;;17.01;80.79
51849;BME280;38952;51.090;-1.832;2022-08-01T00:27:21;100624.75;;;16.95;81.19
51849;BME280;38952;51.090;-1.832;2022-08-01T00:29:47;100626.50;;;16.91;81.44
51849;BME280;38952;51.090;-1.832;2022-08-01T00:32:13;100634.56;;;16.87;81.33
51849;BME280;38952;51.090;-1.832;2022-08-01T00:34:38;100631.28;;;16.85;81.47
51849;BME280;38952;51.090;-1.832;2022-08-01T00:37:04;100640.66;;;16.84;81.68
51849;BME280;38952;51.090;-1.832;2022-08-01T00:39:29;100641.28;;;16.81;81.91
51849;BME280;38952;51.090;-1.832;2022-08-01T00:41:55;100649.88;;;16.80;81.80
51849;BME280;38952;51.090;-1.832;2022-08-01T00:44:20;100644.72;;;16.73;82.21
51849;BME280;38952;51.090;-1.832;2022-08-01T00:46:46;100652.50;;;16.71;82.04
51849;BME280;38952;51.090;-1.832;2022-08-01T00:49:11;100651.16;;;16.68;82.24
51849;BME280;38952;51.090;-1.832;2022-08-01T00:51:38;100655.56;;;16.69;82.39
51849;BME280;38952;51.090;-1.832;2022-08-01T00:54:04;100647.06;;;16.66;82.80
51849;BME280;38952;51.090;-1.832;2022-08-01T00:56:29;100644.28;;;16.66;82.39
51849;BME280;38952;51.090;-1.832;2022-08-01T00:58:56;100647.47;;;16.73;82.50
51849;BME280;38952;51.090;-1.832;2022-08-01T01:01:22;100650.25;;;16.73;82.42
51849;BME280;38952;51.090;-1.832;2022-08-01T01:03:48;100647.78;;;16.71;82.84
51849;BME280;38952;51.090;-1.832;2022-08-01T01:11:57;100650.03;;;16.69;82.72
51849;BME280;38952;51.090;-1.832;2022-08-01T01:17:26;100660.31;;;16.83;82.25
51849;BME280;38952;51.090;-1.832;2022-08-01T01:19:54;100651.22;;;16.82;82.19
51849;BME280;38952;51.090;-1.832;2022-08-01T01:22:27;100648.66;;;16.86;82.24
51849;BME280;38952;51.090;-1.832;2022-08-01T01:30:30;100650.56;;;17.04;81.36
51849;BME280;38952;51.090;-1.832;2022-08-01T01:33:01;100651.63;;;17.08;80.71
51849;BME280;38952;51.090;-1.832;2022-08-01T01:35:31;100645.66;;;17.15;80.05
51849;BME280;38952;51.090;-1.832;2022-08-01T01:40:43;100646.50;;;17.30;79.31
51849;BME280;38952;51.090;-1.832;2022-08-01T01:43:10;100644.66;;;17.39;78.60
51849;BME280;38952;51.090;-1.832;2022-08-01T01:45:37;100635.03;;;17.50;77.43
51849;BME280;38952;51.090;-1.832;2022-08-01T01:48:05;100634.13;;;17.41;77.74
51849;BME280;38952;51.090;-1.832;2022-08-01T01:50:32;100635.88;;;17.37;77.21
51849;BME280;38952;51.090;-1.832;2022-08-01T01:52:59;100631.34;;;17.27;77.58
51849;BME280;38952;51.090;-1.832;2022-08-01T01:55:27;100621.84;;;17.19;77.24
51849;BME280;38952;51.090;-1.832;2022-08-01T01:57:53;100622.94;;;17.18;77.05
51849;BME280;38952;51.090;-1.832;2022-08-01T02:00:21;100628.69;;;17.22;77.07
51849;BME280;38952;51.090;-1.832;2022-08-01T02:02:48;100631.78;;;17.20;76.49
51849;BME280;38952;51.090;-1.832;2022-08-01T02:05:15;100635.03;;;17.22;76.08
51849;BME280;38952;51.090;-1.832;2022-08-01T02:07:41;100634.34;;;17.31;75.95
51849;BME280;38952;51.090;-1.832;2022-08-01T02:10:09;100636.69;;;17.51;75.22
51849;BME280;38952;51.090;-1.832;2022-08-01T02:12:38;100628.88;;;17.53;74.67
51849;BME280;38952;51.090;-1.832;2022-08-01T02:15:05;100637.72;;;17.55;73.76
51849;BME280;38952;51.090;-1.832;2022-08-01T02:17:31;100638.72;;;17.59;74.12
51849;BME280;38952;51.090;-1.832;2022-08-01T02:19:57;100636.47;;;17.61;73.69
51849;BME280;38952;51.090;-1.832;2022-08-01T02:22:36;100639.75;;;17.63;73.01
51849;BME280;38952;51.090;-1.832;2022-08-01T02:25:09;100639.75;;;17.63;72.57
51849;BME280;38952;51.090;-1.832;2022-08-01T02:30:32;100631.75;;;17.62;71.96
51849;BME280;38952;51.090;-1.832;2022-08-01T02:33:05;100632.38;;;17.59;72.08
51849;BME280;38952;51.090;-1.832;2022-08-01T02:35:35;100625.31;;;17.53;71.64
51849;BME280;38952;51.090;-1.832;2022-08-01T02:38:05;100622.25;;;17.54;71.42
51849;BME280;38952;51.090;-1.832;2022-08-01T02:40:33;100625.63;;;17.51;70.83
51849;BME280;38952;51.090;-1.832;2022-08-01T02:43:03;100622.34;;;17.49;70.88
51849;BME280;38952;51.090;-1.832;2022-08-01T02:45:31;100632.28;;;17.50;70.54
51849;BME280;38952;51.090;-1.832;2022-08-01T02:48:06;100627.28;;;17.52;70.63
51849;BME280;38952;51.090;-1.832;2022-08-01T02:50:34;100627.88;;;17.49;70.52
51849;BME280;38952;51.090;-1.832;2022-08-01T02:53:01;100625.09;;;17.49;70.06
51849;BME280;38952;51.090;-1.832;2022-08-01T02:55:27;100627.28;;;17.52;69.68
51849;BME280;38952;51.090;-1.832;2022-08-01T02:57:54;100618.88;;;17.43;69.75
51849;BME280;38952;51.090;-1.832;2022-08-01T03:00:22;100625.63;;;17.51;70.21
51849;BME280;38952;51.090;-1.832;2022-08-01T03:02:49;100621.34;;;17.45;69.34
51849;BME280;38952;51.090;-1.832;2022-08-01T03:05:17;100611.91;;;17.32;69.21
51849;BME280;38952;51.090;-1.832;2022-08-01T03:07:43;100615.19;;;17.20;69.70
51849;BME280;38952;51.090;-1.832;2022-08-01T03:10:10;100619.06;;;17.19;69.71
51849;BME280;38952;51.090;-1.832;2022-08-01T03:12:36;100621.75;;;17.24;69.74
51849;BME280;38952;51.090;-1.832;2022-08-01T03:15:04;100612.94;;;17.36;68.78
51849;BME280;38952;51.090;-1.832;2022-08-01T03:17:31;100608.09;;;17.42;68.69
51849;BME280;38952;51.090;-1.832;2022-08-01T03:19:59;100612.31;;;17.53;68.40
51849;BME280;38952;51.090;-1.832;2022-08-01T03:22:27;100619.16;;;17.56;68.03
51849;BME280;38952;51.090;-1.832;2022-08-01T03:24:56;100623.38;;;17.53;67.60
51849;BME280;38952;51.090;-1.832;2022-08-01T03:27:25;100629.13;;;17.57;67.55
51849;BME280;38952;51.090;-1.832;2022-08-01T03:29:51;100625.41;;;17.61;67.14
51849;BME280;38952;51.090;-1.832;2022-08-01T03:32:18;100626.31;;;17.71;66.29
51849;BME280;38952;51.090;-1.832;2022-08-01T03:34:46;100629.50;;;17.64;66.07
51849;BME280;38952;51.090;-1.832;2022-08-01T03:37:20;100633.00;;;17.70;66.30
51849;BME280;38952;51.090;-1.832;2022-08-01T03:39:54;100627.25;;;17.80;66.20
51849;BME280;38952;51.090;-1.832;2022-08-01T03:42:24;100615.25;;;17.85;65.69
51849;BME280;38952;51.090;-1.832;2022-08-01T03:44:57;100608.38;;;17.82;65.86
51849;BME280;38952;51.090;-1.832;2022-08-01T03:47:28;100610.03;;;17.83;65.70
51849;BME280;38952;51.090;-1.832;2022-08-01T03:49:55;100617.00;;;17.80;65.55
51849;BME280;38952;51.090;-1.832;2022-08-01T03:52:24;100611.25;;;17.77;65.36
51849;BME280;38952;51.090;-1.832;2022-08-01T03:54:52;100618.63;;;17.82;64.73
51849;BME280;38952;51.090;-1.832;2022-08-01T03:57:20;100620.69;;;17.76;64.50
51849;BME280;38952;51.090;-1.832;2022-08-01T03:59:46;100619.84;;;17.75;65.13
51849;BME280;38952;51.090;-1.832;2022-08-01T04:02:12;100619.44;;;17.82;64.56
51849;BME280;38952;51.090;-1.832;2022-08-01T04:04:40;100618.94;;;17.80;64.73
51849;BME280;38952;51.090;-1.832;2022-08-01T04:07:21;100616.00;;;17.90;64.33
51849;BME280;38952;51.090;-1.832;2022-08-01T04:09:46;100616.97;;;17.94;63.57
51849;BME280;38952;51.090;-1.832;2022-08-01T04:12:12;100617.28;;;17.93;63.38
51849;BME280;38952;51.090;-1.832;2022-08-01T04:14:38;100613.31;;;17.99;63.61
51849;BME280;38952;51.090;-1.832;2022-08-01T04:17:03;100609.00;;;17.93;63.09
51849;BME280;38952;51.090;-1.832;2022-08-01T04:19:29;100611.63;;;17.84;63.51
51849;BME280;38952;51.090;-1.832;2022-08-01T04:21:55;100598.97;;;17.83;63.47
51849;BME280;38952;51.090;-1.832;2022-08-01T04:24:22;100597.94;;;17.79;63.03
51849;BME280;38952;51.090;-1.832;2022-08-01T04:26:50;100609.53;;;17.67;62.50
51849;BME280;38952;51.090;-1.832;2022-08-01T04:29:17;100609.22;;;17.69;63.06
51849;BME280;38952;51.090;-1.832;2022-08-01T04:31:46;100608.81;;;17.61;63.02
51849;BME280;38952;51.090;-1.832;2022-08-01T04:34:16;100614.75;;;17.69;63.16
51849;BME280;38952;51.090;-1.832;2022-08-01T04:36:43;100624.06;;;17.73;62.59
51849;BME280;38952;51.090;-1.832;2022-08-01T04:39:11;100622.53;;;17.67;62.49
51849;BME280;38952;51.090;-1.832;2022-08-01T04:41:39;100624.06;;;17.73;63.14
51849;BME280;38952;51.090;-1.832;2022-08-01T04:44:05;100621.94;;;17.70;62.44
51849;BME280;38952;51.090;-1.832;2022-08-01T04:46:33;100627.66;;;17.73;62.58
51849;BME280;38952;51.090;-1.832;2022-08-01T04:48:59;100622.94;;;17.74;62.45
51849;BME280;38952;51.090;-1.832;2022-08-01T04:51:25;100621.72;;;17.80;62.15
51849;BME280;38952;51.090;-1.832;2022-08-01T04:53:51;100631.00;;;17.84;61.70
51849;BME280;38952;51.090;-1.832;2022-08-01T04:56:18;100640.75;;;17.95;62.13
51849;BME280;38952;51.090;-1.832;2022-08-01T04:58:44;100635.22;;;17.95;61.38
51849;BME280;38952;51.090;-1.832;2022-08-01T05:01:10;100638.13;;;17.90;61.17
51849;BME280;38952;51.090;-1.832;2022-08-01T05:03:36;100638.72;;;17.87;61.32
51849;BME280;38952;51.090;-1.832;2022-08-01T05:06:02;100632.97;;;17.84;60.62
51849;BME280;38952;51.090;-1.832;2022-08-01T05:08:27;100630.91;;;17.89;60.93
51849;BME280;38952;51.090;-1.832;2022-08-01T05:10:53;100628.97;;;17.90;60.82
51849;BME280;38952;51.090;-1.832;2022-08-01T05:13:19;100637.69;;;17.83;60.69
51849;BME280;38952;51.090;-1.832;2022-08-01T05:15:44;100644.44;;;17.77;60.47
51849;BME280;38952;51.090;-1.832;2022-08-01T05:18:10;100641.16;;;17.75;60.53
51849;BME280;38952;51.090;-1.832;2022-08-01T05:20:35;100642.69;;;17.81;60.56
51849;BME280;38952;51.090;-1.832;2022-08-01T05:23:02;100640.03;;;17.90;60.60
51849;BME280;38952;51.090;-1.832;2022-08-01T05:25:28;100645.44;;;18.09;59.87
51849;BME280;38952;51.090;-1.832;2022-08-01T05:27:53;100644.22;;;18.15;59.84
51849;BME280;38952;51.090;-1.832;2022-08-01T05:30:19;100645.03;;;18.16;59.41
51849;BME280;38952;51.090;-1.832;2022-08-01T05:32:44;100644.56;;;18.22;59.30
51849;BME280;38952;51.090;-1.832;2022-08-01T05:35:10;100652.34;;;18.34;58.63
51849;BME280;38952;51.090;-1.832;2022-08-01T05:37:35;100652.34;;;18.34;58.15
51849;BME280;38952;51.090;-1.832;2022-08-01T05:40:01;100656.56;;;18.31;58.37
51849;BME280;38952;51.090;-1.832;2022-08-01T05:42:26;100649.50;;;18.25;58.66
51849;BME280;38952;51.090;-1.832;2022-08-01T05:44:52;100663.22;;;18.30;58.88
51849;BME280;38952;51.090;-1.832;2022-08-01T05:47:18;100664.22;;;18.35;58.64
51849;BME280;38952;51.090;-1.832;2022-08-01T05:49:44;100668.09;;;18.47;58.17
51849;BME280;38952;51.090;-1.832;2022-08-01T05:52:10;100672.41;;;18.40;58.67
51849;BME280;38952;51.090;-1.832;2022-08-01T05:54:35;100665.25;;;18.39;58.30
51849;BME280;38952;51.090;-1.832;2022-08-01T05:57:01;100670.78;;;18.39;58.24
51849;BME280;38952;51.090;-1.832;2022-08-01T05:59:28;100667.50;;;18.37;58.72
51849;BME280;38952;51.090;-1.832;2022-08-01T06:01:53;100671.81;;;18.43;57.83
51849;BME280;38952;51.090;-1.832;2022-08-01T06:04:19;100673.09;;;18.45;58.21
51849;BME280;38952;51.090;-1.832;2022-08-01T06:06:44;100682.56;;;18.67;57.38
51849;BME280;38952;51.090;-1.832;2022-08-01T06:09:10;100679.84;;;18.76;57.61
51849;BME280;38952;51.090;-1.832;2022-08-01T06:11:35;100674.56;;;18.65;57.67
51849;BME280;38952;51.090;-1.832;2022-08-01T06:14:00;100675.44;;;18.75;57.18
51849;BME280;38952;51.090;-1.832;2022-08-01T06:16:26;100671.69;;;18.71;56.86
51849;BME280;38952;51.090;-1.832;2022-08-01T06:18:51;100671.16;;;18.69;56.85
51849;BME280;38952;51.090;-1.832;2022-08-01T06:21:17;100675.75;;;18.73;56.60
51849;BME280;38952;51.090;-1.832;2022-08-01T06:23:42;100674.09;;;18.86;56.57
51849;BME280;38952;51.090;-1.832;2022-08-01T06:26:08;100675.97;;;18.99;56.38
51849;BME280;38952;51.090;-1.832;2022-08-01T06:28:34;100668.81;;;18.98;55.57
51849;BME280;38952;51.090;-1.832;2022-08-01T06:30:59;100678.47;;;19.10;55.59
51849;BME280;38952;51.090;-1.832;2022-08-01T06:33:26;100680.19;;;19.28;55.17
51849;BME280;38952;51.090;-1.832;2022-08-01T06:35:53;100686.94;;;19.45;55.14
51849;BME280;38952;51.090;-1.832;2022-08-01T06:38:18;100683.09;;;19.54;54.34
51849;BME280;38952;51.090;-1.832;2022-08-01T06:40:44;100682.44;;;19.58;53.97
51849;BME280;38952;51.090;-1.832;2022-08-01T06:43:09;100683.56;;;19.48;52.98
51849;BME280;38952;51.090;-1.832;2022-08-01T06:45:37;100676.81;;;19.40;53.38
51849;BME280;38952;51.090;-1.832;2022-08-01T06:48:03;100685.81;;;19.46;54.22
51849;BME280;38952;51.090;-1.832;2022-08-01T06:50:29;100683.88;;;19.55;54.02
51849;BME280;38952;51.090;-1.832;2022-08-01T06:52:54;100694.06;;;19.68;53.68
51849;BME280;38952;51.090;-1.832;2022-08-01T06:55:19;100685.16;;;19.80;53.64
51849;BME280;38952;51.090;-1.832;2022-08-01T06:57:47;100680.13;;;19.91;53.25
51849;BME280;38952;51.090;-1.832;2022-08-01T07:00:13;100679.84;;;20.19;53.04
51849;BME280;38952;51.090;-1.832;2022-08-01T07:02:39;100678.88;;;20.50;51.93
51849;BME280;38952;51.090;-1.832;2022-08-01T07:05:04;100682.66;;;20.71;51.62
51849;BME280;38952;51.090;-1.832;2022-08-01T07:07:32;100691.94;;;20.93;50.93
51849;BME280;38952;51.090;-1.832;2022-08-01T07:09:58;100692.56;;;21.07;50.00
51849;BME280;38952;51.090;-1.832;2022-08-01T07:12:23;100693.84;;;21.19;49.56
51849;BME280;38952;51.090;-1.832;2022-08-01T07:14:49;100690.06;;;21.23;49.80
51849;BME280;38952;51.090;-1.832;2022-08-01T07:17:14;100700.38;;;21.23;49.86
51849;BME280;38952;51.090;-1.832;2022-08-01T07:19:39;100691.69;;;21.24;49.42
51849;BME280;38952;51.090;-1.832;2022-08-01T07:22:05;100694.44;;;21.33;49.37
51849;BME280;38952;51.090;-1.832;2022-08-01T07:24:30;100696.69;;;21.49;49.01
51849;BME280;38952;51.090;-1.832;2022-08-01T07:26:56;100705.84;;;21.58;48.94
51849;BME280;38952;51.090;-1.832;2022-08-01T07:29:26;100705.97;;;21.70;47.81
51849;BME280;38952;51.090;-1.832;2022-08-01T07:31:52;100704.44;;;21.82;47.47
51849;BME280;38952;51.090;-1.832;2022-08-01T07:34:18;100706.63;;;21.97;47.49
51849;BME280;38952;51.090;-1.832;2022-08-01T07:36:44;100702.94;;;22.14;47.92
51849;BME280;38952;51.090;-1.832;2022-08-01T07:39:09;100709.06;;;22.28;46.72
51849;BME280;38952;51.090;-1.832;2022-08-01T07:41:35;100719.00;;;22.38;46.80
51849;BME280;38952;51.090;-1.832;2022-08-01T07:44:00;100711.44;;;22.60;46.38
51849;BME280;38952;51.090;-1.832;2022-08-01T07:46:26;100709.72;;;22.89;45.88
51849;BME280;38952;51.090;-1.832;2022-08-01T07:48:51;100714.19;;;23.02;45.63
51849;BME280;38952;51.090;-1.832;2022-08-01T07:51:17;100706.81;;;23.18;45.73
51849;BME280;38952;51.090;-1.832;2022-08-01T07:53:43;100708.09;;;23.21;45.29
51849;BME280;38952;51.090;-1.832;2022-08-01T07:56:08;100709.16;;;23.29;44.07
51849;BME280;38952;51.090;-1.832;2022-08-01T07:58:35;100709.16;;;23.29;44.46
51849;BME280;38952;51.090;-1.832;2022-08-01T08:01:00;100711.28;;;23.44;44.20
51849;BME280;38952;51.090;-1.832;2022-08-01T08:03:26;100709.91;;;23.63;43.55
51849;BME280;38952;51.090;-1.832;2022-08-01T08:05:52;100722.72;;;23.76;42.78
51849;BME280;38952;51.090;-1.832;2022-08-01T08:08:17;100722.03;;;23.92;42.86
51849;BME280;38952;51.090;-1.832;2022-08-01T08:10:43;100723.88;;;24.12;42.72
51849;BME280;38952;51.090;-1.832;2022-08-01T08:13:09;100723.44;;;23.98;42.90
51849;BME280;38952;51.090;-1.832;2022-08-01T08:15:34;100722.94;;;23.83;42.03
51849;BME280;38952;51.090;-1.832;2022-08-01T08:17:59;100722.59;;;23.60;43.15
51849;BME280;38952;51.090;-1.832;2022-08-01T08:20:25;100722.00;;;23.42;42.92
51849;BME280;38952;51.090;-1.832;2022-08-01T08:22:52;100724.72;;;23.17;43.19
51849;BME280;38952;51.090;-1.832;2022-08-01T08:25:18;100723.22;;;22.99;43.66
51849;BME280;38952;51.090;-1.832;2022-08-01T08:27:47;100724.72;;;22.96;43.70
51849;BME280;38952;51.090;-1.832;2022-08-01T08:30:13;100729.88;;;23.07;43.01
51849;BME280;38952;51.090;-1.832;2022-08-01T08:32:39;100725.22;;;23.32;42.84
51849;BME280;38952;51.090;-1.832;2022-08-01T08:35:05;100734.69;;;23.77;42.24
51849;BME280;38952;51.090;-1.832;2022-08-01T08:37:31;100727.13;;;24.14;41.04
51849;BME280;38952;51.090;-1.832;2022-08-01T08:39:57;100718.00;;;24.42;41.05
51849;BME280;38952;51.090;-1.832;2022-08-01T08:42:22;100729.34;;;24.74;40.37
51849;BME280;38952;51.090;-1.832;2022-08-01T08:44:48;100721.53;;;25.24;39.48
51849;BME280;38952;51.090;-1.832;2022-08-01T08:47:15;100725.66;;;25.74;38.33
51849;BME280;38952;51.090;-1.832;2022-08-01T08:49:43;100734.56;;;25.80;38.21
51849;BME280;38952;51.090;-1.832;2022-08-01T08:52:10;100735.47;;;25.68;37.69
51849;BME280;38952;51.090;-1.832;2022-08-01T08:54:37;100729.81;;;25.65;37.60
51849;BME280;38952;51.090;-1.832;2022-08-01T08:57:04;100738.56;;;25.95;38.01
51849;BME280;38952;51.090;-1.832;2022-08-01T08:59:30;100733.44;;;26.17;37.24
51849;BME280;38952;51.090;-1.832;2022-08-01T09:01:57;100729.25;;;26.07;37.41
51849;BME280;38952;51.090;-1.832;2022-08-01T09:04:24;100734.13;;;26.10;36.86
51849;BME280;38952;51.090;-1.832;2022-08-01T09:06:49;100724.91;;;25.93;37.10
51849;BME280;38952;51.090;-1.832;2022-08-01T09:09:15;100710.03;;;25.57;37.38
51849;BME280;38952;51.090;-1.832;2022-08-01T09:11:41;100717.44;;;25.34;37.57
51849;BME280;38952;51.090;-1.832;2022-08-01T09:14:15;100720.88;;;25.15;37.92
51849;BME280;38952;51.090;-1.832;2022-08-01T09:17:07;100722.84;;;25.14;37.88
51849;BME280;38952;51.090;-1.832;2022-08-01T09:19:46;100720.94;;;25.31;38.14
51849;BME280;38952;51.090;-1.832;2022-08-01T09:22:21;100731.97;;;25.55;37.48
51849;BME280;38952;51.090;-1.832;2022-08-01T09:25:08;100727.97;;;25.88;37.08
51849;BME280;38952;51.090;-1.832;2022-08-01T09:27:35;100720.09;;;26.45;36.46
51849;BME280;38952;51.090;-1.832;2022-08-01T09:32:33;100711.91;;;26.95;35.49
51849;BME280;38952;51.090;-1.832;2022-08-01T09:35:22;100706.31;;;26.56;35.66
51849;BME280;38952;51.090;-1.832;2022-08-01T09:37:48;100703.00;;;26.15;36.60
51849;BME280;38952;51.090;-1.832;2022-08-01T09:40:14;100703.88;;;26.00;37.03
51849;BME280;38952;51.090;-1.832;2022-08-01T09:42:39;100705.56;;;25.88;37.21
51849;BME280;38952;51.090;-1.832;2022-08-01T09:45:06;100707.44;;;26.16;37.15
51849;BME280;38952;51.090;-1.832;2022-08-01T09:47:40;100711.44;;;27.13;35.49
51849;BME280;38952;51.090;-1.832;2022-08-01T09:50:08;100712.50;;;28.24;33.78
51849;BME280;38952;51.090;-1.832;2022-08-01T09:52:34;100700.22;;;29.41;32.39
51849;BME280;38952;51.090;-1.832;2022-08-01T09:55:04;100714.72;;;30.62;30.68
51849;BME280;38952;51.090;-1.832;2022-08-01T09:57:30;100711.75;;;31.61;29.68
51849;BME280;38952;51.090;-1.832;2022-08-01T09:59:58;100718.84;;;32.52;27.98
51849;BME280;38952;51.090;-1.832;2022-08-01T10:04:52;100726.97;;;34.94;25.69
51849;BME280;38952;51.090;-1.832;2022-08-01T10:07:19;100731.72;;;36.03;24.95
51849;BME280;38952;51.090;-1.832;2022-08-01T10:09:46;100729.31;;;35.78;24.86
51849;BME280;38952;51.090;-1.832;2022-08-01T10:12:13;100740.13;;;34.05;26.46
51849;BME280;38952;51.090;-1.832;2022-08-01T10:14:40;100741.97;;;32.36;28.27
51849;BME280;38952;51.090;-1.832;2022-08-01T10:17:07;100744.03;;;31.60;29.70
51849;BME280;38952;51.090;-1.832;2022-08-01T10:19:34;100732.16;;;32.62;28.94
51849;BME280;38952;51.090;-1.832;2022-08-01T10:22:01;100716.75;;;33.41;27.62
51849;BME280;38952;51.090;-1.832;2022-08-01T10:24:29;100707.47;;;33.89;27.63
51849;BME280;38952;51.090;-1.832;2022-08-01T10:26:58;100711.25;;;34.17;27.42
51849;BME280;38952;51.090;-1.832;2022-08-01T10:29:47;100717.53;;;34.36;27.03
51849;BME280;38952;51.090;-1.832;2022-08-01T10:32:15;100724.94;;;34.22;27.42
51849;BME280;38952;51.090;-1.832;2022-08-01T10:34:41;100722.59;;;34.17;27.57
51849;BME280;38952;51.090;-1.832;2022-08-01T10:37:07;100722.47;;;34.32;26.68
51849;BME280;38952;51.090;-1.832;2022-08-01T10:39:34;100717.53;;;34.36;26.73
51849;BME280;38952;51.090;-1.832;2022-08-01T10:42:01;100721.06;;;34.78;26.67
51849;BME280;38952;51.090;-1.832;2022-08-01T10:44:29;100713.22;;;35.44;26.27
51849;BME280;38952;51.090;-1.832;2022-08-01T10:47:14;100719.78;;;36.12;25.91
51849;BME280;38952;51.090;-1.832;2022-08-01T10:49:50;100724.09;;;36.40;25.90
51849;BME280;38952;51.090;-1.832;2022-08-01T10:52:20;100732.63;;;35.73;25.53
51849;BME280;38952;51.090;-1.832;2022-08-01T10:54:46;100729.47;;;34.54;25.24
51849;BME280;38952;51.090;-1.832;2022-08-01T10:57:12;100729.09;;;33.13;26.72
51849;BME280;38952;51.090;-1.832;2022-08-01T10:59:49;100727.47;;;33.15;27.11
51849;BME280;38952;51.090;-1.832;2022-08-01T11:02:33;100724.69;;;33.64;27.33
51849;BME280;38952;51.090;-1.832;2022-08-01T11:05:07;100716.56;;;33.66;27.62
51849;BME280;38952;51.090;-1.832;2022-08-01T11:07:46;100723.44;;;34.14;28.02
51849;BME280;38952;51.090;-1.832;2022-08-01T11:10:23;100723.53;;;34.76;27.62
51849;BME280;38952;51.090;-1.832;2022-08-01T11:12:50;100715.91;;;35.55;26.05
51849;BME280;38952;51.090;-1.832;2022-08-01T11:15:17;100717.88;;;36.25;25.26
51849;BME280;38952;51.090;-1.832;2022-08-01T11:17:49;100727.09;;;37.10;23.83
51849;BME280;38952;51.090;-1.832;2022-08-01T11:20:24;100724.81;;;37.21;22.66
51849;BME280;38952;51.090;-1.832;2022-08-01T11:30:47;100707.88;;;37.96;21.82
51849;BME280;38952;51.090;-1.832;2022-08-01T11:33:15;100710.56;;;38.88;21.09
51849;BME280;38952;51.090;-1.832;2022-08-01T11:38:40;100713.22;;;38.53;20.43
51849;BME280;38952;51.090;-1.832;2022-08-01T11:41:29;100718.88;;;38.82;19.99
51849;BME280;38952;51.090;-1.832;2022-08-01T11:44:08;100714.38;;;40.95;17.54
51849;BME280;38952;51.090;-1.832;2022-08-01T11:46:57;100711.44;;;41.95;15.58
51849;BME280;38952;51.090;-1.832;2022-08-01T11:49:45;100706.31;;;42.36;15.69
51849;BME280;38952;51.090;-1.832;2022-08-01T11:52:37;100707.97;;;42.89;14.39
51849;BME280;38952;51.090;-1.832;2022-08-01T11:55:08;100695.34;;;44.32;14.42
51849;BME280;38952;51.090;-1.832;2022-08-01T11:57:34;100697.44;;;45.47;13.20
51849;BME280;38952;51.090;-1.832;2022-08-01T12:00:05;100685.44;;;46.80;12.30
51849;BME280;38952;51.090;-1.832;2022-08-01T12:02:41;100680.88;;;48.71;11.75
51849;BME280;38952;51.090;-1.832;2022-08-01T12:05:33;100669.16;;;50.89;9.44
51849;BME280;38952;51.090;-1.832;2022-08-01T12:29:18;100637.91;;;52.74;9.54
51849;BME280;38952;51.090;-1.832;2022-08-01T12:31:59;100622.47;;;53.54;9.02
51849;BME280;38952;51.090;-1.832;2022-08-01T12:34:33;100611.13;;;54.27;9.14
51849;BME280;38952;51.090;-1.832;2022-08-01T12:37:02;100621.03;;;55.03;8.44
51849;BME280;38952;51.090;-1.832;2022-08-01T12:39:34;100611.25;;;55.37;8.26
51849;BME280;38952;51.090;-1.832;2022-08-01T12:42:00;100616.16;;;54.69;8.06
51849;BME280;38952;51.090;-1.832;2022-08-01T12:44:28;100613.88;;;54.33;8.25
51849;BME280;38952;51.090;-1.832;2022-08-01T12:46:55;100615.13;;;54.95;8.20
51849;BME280;38952;51.090;-1.832;2022-08-01T12:49:21;100615.66;;;55.67;7.33
51849;BME280;38952;51.090;-1.832;2022-08-01T12:51:48;100617.63;;;55.72;6.50
51849;BME280;38952;51.090;-1.832;2022-08-01T12:54:13;100616.69;;;56.23;5.84
51849;BME280;38952;51.090;-1.832;2022-08-01T12:56:39;100614.16;;;56.04;6.36
51849;BME280;38952;51.090;-1.832;2022-08-01T12:59:24;100612.75;;;55.82;5.77
51849;BME280;38952;51.090;-1.832;2022-08-01T13:01:53;100602.38;;;54.06;5.99
51849;BME280;38952;51.090;-1.832;2022-08-01T13:04:22;100595.34;;;52.52;6.83
51849;BME280;38952;51.090;-1.832;2022-08-01T13:06:54;100595.59;;;52.22;7.43
51849;BME280;38952;51.090;-1.832;2022-08-01T13:09:19;100588.66;;;54.01;7.44
51849;BME280;38952;51.090;-1.832;2022-08-01T13:11:47;100607.84;;;55.77;6.44
51849;BME280;38952;51.090;-1.832;2022-08-01T13:14:29;100609.88;;;56.59;5.92
51849;BME280;38952;51.090;-1.832;2022-08-01T13:16:55;100595.97;;;56.37;6.04
51849;BME280;38952;51.090;-1.832;2022-08-01T13:19:20;100602.63;;;56.06;5.79
51849;BME280;38952;51.090;-1.832;2022-08-01T13:21:56;100606.81;;;55.51;5.97
51849;BME280;38952;51.090;-1.832;2022-08-01T13:24:26;100599.09;;;54.88;5.52
51849;BME280;38952;51.090;-1.832;2022-08-01T13:27:00;100591.31;;;53.56;5.79
51849;BME280;38952;51.090;-1.832;2022-08-01T13:31:58;100589.28;;;54.49;5.20
51849;BME280;38952;51.090;-1.832;2022-08-01T13:34:32;100596.28;;;55.56;5.42
51849;BME280;38952;51.090;-1.832;2022-08-01T13:36:58;100592.75;;;55.57;4.97
51849;BME280;38952;51.090;-1.832;2022-08-01T13:39:23;100587.50;;;55.11;5.15
51849;BME280;38952;51.090;-1.832;2022-08-01T13:42:18;100595.22;;;56.05;4.48
51849;BME280;38952;51.090;-1.832;2022-08-01T13:44:44;100591.81;;;55.18;4.88